Grant Valley, Minnesota
Current Conditions -  °F | °C
As of 11:12 AM on Thursday 27 Nov 2014 (Local Time) from KBJI Reporting Station
Clear Clear  
Wind Chill: -4°   Ceiling: Unl
Heat Index: -4°   Visibility: 7mi
Dew Point: -11°   Wind: 3mph
Humidity: 71%   Direction: 210°SSW
Pressure: 30.41"   Gusts: NA
Location:  47.5271°N, 94.7611°W
Report Text: KBJI 271712Z AUTO 21003KT 7SM CLR M20/M24 A3041 RMK AO2 T12001240
Loading
Personal Weather Stations






























Interactive Weather Map New forecast layout! Learn more

10-Day Weather Forecast

Advertisements
Track Severe Weather on mobile